createdAt,value
2022-10-24T00:01:57.313Z,8.83
2022-10-24T00:04:26.015Z,9.32
2022-10-24T00:06:54.710Z,10.85
2022-10-24T00:09:24.742Z,12.00
2022-10-24T00:11:53.331Z,11.07
2022-10-24T00:14:22.097Z,6.80
2022-10-24T00:16:50.793Z,7.60
2022-10-24T00:19:19.435Z,7.35
2022-10-24T00:21:48.378Z,9.50
2022-10-24T00:24:17.434Z,10.80
2022-10-24T00:26:47.539Z,8.88
2022-10-24T00:29:16.223Z,8.20
2022-10-24T00:31:44.844Z,10.10
2022-10-24T00:34:13.571Z,11.18
2022-10-24T00:36:42.206Z,14.10
2022-10-24T00:39:12.457Z,11.90
2022-10-24T00:41:44.419Z,13.40
2022-10-24T00:44:23.886Z,16.15
2022-10-24T00:49:25.085Z,15.45
2022-10-24T00:51:58.339Z,12.63
2022-10-24T00:54:27.178Z,13.70
2022-10-24T00:57:03.921Z,13.15
2022-10-24T00:59:36.103Z,12.38
2022-10-24T01:02:05.179Z,13.23
2022-10-24T01:04:33.798Z,12.63
2022-10-24T01:07:16.110Z,10.77
2022-10-24T01:10:08.404Z,14.27
2022-10-24T01:12:47.775Z,12.25
2022-10-24T01:15:23.617Z,11.15
2022-10-24T01:18:01.097Z,11.90
2022-10-24T01:20:53.598Z,11.68
2022-10-24T01:23:50.666Z,13.35
2022-10-24T01:26:42.821Z,9.60
2022-10-24T01:29:19.677Z,11.13
2022-10-24T01:31:55.570Z,11.07
2022-10-24T01:34:31.632Z,11.23
2022-10-24T01:37:06.169Z,11.63
2022-10-24T01:39:41.710Z,11.15
2022-10-24T01:42:14.324Z,10.82
2022-10-24T01:44:46.896Z,10.90
2022-10-24T01:47:20.867Z,10.82
2022-10-24T01:49:54.050Z,8.77
2022-10-24T01:52:24.336Z,9.20
2022-10-24T01:54:53.103Z,13.77
2022-10-24T01:57:21.800Z,9.67
2022-10-24T01:59:50.723Z,10.10
2022-10-24T02:02:26.121Z,8.32
2022-10-24T02:04:58.934Z,9.27
2022-10-24T02:07:30.205Z,10.20
2022-10-24T02:10:03.504Z,9.35
2022-10-24T02:12:34.275Z,11.43
2022-10-24T02:15:08.206Z,14.50
2022-10-24T02:17:38.389Z,12.13
2022-10-24T02:20:09.702Z,12.32
2022-10-24T02:22:47.213Z,10.95
2022-10-24T02:25:22.925Z,10.23
2022-10-24T02:27:54.819Z,11.63
2022-10-24T02:30:25.876Z,10.35
2022-10-24T02:32:58.986Z,16.60
2022-10-24T02:35:30.342Z,11.85
2022-10-24T02:38:02.927Z,11.63
2022-10-24T02:40:32.953Z,12.38
2022-10-24T02:43:03.485Z,12.63
2022-10-24T02:45:33.351Z,11.63
2022-10-24T02:48:06.501Z,13.52
2022-10-24T02:50:36.240Z,10.63
2022-10-24T02:53:05.545Z,9.13
2022-10-24T02:55:34.252Z,11.77
2022-10-24T02:58:02.883Z,8.73
2022-10-24T03:00:31.594Z,8.88
2022-10-24T03:03:00.311Z,13.32
2022-10-24T03:05:30.332Z,12.48
2022-10-24T03:07:58.995Z,10.48
2022-10-24T03:10:27.660Z,11.00
2022-10-24T03:12:56.397Z,11.03
2022-10-24T03:15:25.144Z,11.37
2022-10-24T03:17:53.695Z,13.15
2022-10-24T03:20:22.487Z,9.65
2022-10-24T03:22:52.530Z,12.90
2022-10-24T03:25:21.204Z,12.20
2022-10-24T03:27:49.937Z,24.60
2022-10-24T03:30:18.600Z,16.55
2022-10-24T03:32:47.614Z,23.13
2022-10-24T03:35:16.798Z,17.77
2022-10-24T03:37:45.484Z,20.15
2022-10-24T03:40:15.734Z,20.57
2022-10-24T03:42:44.651Z,22.25
2022-10-24T03:45:13.398Z,17.30
2022-10-24T03:47:42.125Z,12.97
2022-10-24T03:50:11.073Z,10.87
2022-10-24T03:52:40.163Z,14.23
2022-10-24T03:55:09.482Z,14.23
2022-10-24T03:57:39.803Z,10.60
2022-10-24T04:00:09.973Z,11.32
2022-10-24T04:02:40.278Z,9.88
2022-10-24T04:05:11.756Z,14.52
2022-10-24T04:07:40.538Z,10.93
2022-10-24T04:10:09.889Z,11.18
2022-10-24T04:12:39.880Z,11.82
2022-10-24T04:15:09.367Z,10.60
2022-10-24T04:17:37.942Z,10.68
2022-10-24T04:20:07.464Z,10.55
2022-10-24T04:22:36.194Z,8.63
2022-10-24T04:25:05.082Z,10.02
2022-10-24T04:27:34.556Z,9.88
2022-10-24T04:30:04.592Z,10.23
2022-10-24T04:32:33.209Z,10.20
2022-10-24T04:35:03.248Z,15.10
2022-10-24T04:37:31.993Z,12.60
2022-10-24T04:40:00.690Z,12.65
2022-10-24T04:42:29.210Z,11.80
2022-10-24T04:44:57.842Z,11.57
2022-10-24T04:47:28.524Z,14.65
2022-10-24T04:49:57.197Z,15.88
2022-10-24T04:52:25.738Z,13.80
2022-10-24T04:54:54.401Z,13.13
2022-10-24T04:57:23.788Z,14.07
2022-10-24T04:59:52.448Z,11.38
2022-10-24T05:02:21.122Z,11.60
2022-10-24T05:04:51.198Z,14.13
2022-10-24T05:07:21.783Z,14.23
2022-10-24T05:09:50.418Z,11.95
2022-10-24T05:14:52.500Z,14.25
2022-10-24T05:17:21.116Z,15.57
2022-10-24T05:19:51.133Z,24.85
2022-10-24T05:22:19.883Z,28.83
2022-10-24T05:24:48.465Z,26.00
2022-10-24T05:27:17.182Z,25.60
2022-10-24T05:29:45.774Z,21.03
2022-10-24T05:32:14.506Z,19.23
2022-10-24T05:34:43.061Z,24.90
2022-10-24T05:37:13.277Z,20.20
2022-10-24T05:39:42.015Z,19.70
2022-10-24T05:42:11.274Z,20.77
2022-10-24T05:44:40.184Z,18.50
2022-10-24T05:47:08.749Z,14.93
2022-10-24T05:49:37.769Z,11.67
2022-10-24T05:52:06.930Z,10.98
2022-10-24T05:54:48.561Z,12.35
2022-10-24T05:57:25.931Z,10.45
2022-10-24T05:59:54.406Z,13.10
2022-10-24T06:02:23.244Z,10.85
2022-10-24T06:04:51.976Z,13.25
2022-10-24T06:07:20.838Z,13.53
2022-10-24T06:09:50.779Z,12.68
2022-10-24T06:12:19.689Z,12.10
2022-10-24T06:14:48.234Z,15.20
2022-10-24T06:17:16.963Z,11.60
2022-10-24T06:19:46.336Z,10.50
2022-10-24T06:22:14.969Z,11.82
2022-10-24T06:24:43.487Z,9.45
2022-10-24T06:27:13.513Z,14.20
2022-10-24T06:29:42.130Z,11.35
2022-10-24T06:32:10.681Z,14.85
2022-10-24T06:34:39.382Z,17.80
2022-10-24T06:37:07.896Z,11.13
2022-10-24T06:39:36.435Z,14.48
2022-10-24T06:42:05.120Z,12.52
2022-10-24T06:44:35.118Z,14.23
2022-10-24T06:47:03.712Z,13.48
2022-10-24T06:49:32.309Z,12.77
2022-10-24T06:52:00.951Z,11.40
2022-10-24T06:54:30.580Z,13.82
2022-10-24T06:56:59.396Z,15.18
2022-10-24T06:59:28.341Z,19.90
2022-10-24T07:02:01.852Z,25.52
2022-10-24T07:04:34.378Z,27.67
2022-10-24T07:07:03.060Z,25.17
2022-10-24T07:09:31.611Z,29.13
2022-10-24T07:12:00.530Z,16.40
2022-10-24T07:14:29.192Z,13.30
2022-10-24T07:16:59.609Z,12.43
2022-10-24T07:19:28.471Z,12.38
2022-10-24T07:21:56.997Z,12.63
2022-10-24T07:24:25.573Z,11.43
2022-10-24T07:26:54.261Z,15.10
2022-10-24T07:29:23.529Z,11.07
2022-10-24T07:31:52.422Z,11.48
2022-10-24T07:34:22.490Z,13.98
2022-10-24T07:36:51.090Z,12.60
2022-10-24T07:39:19.999Z,11.00
2022-10-24T07:41:48.551Z,12.93
2022-10-24T07:44:17.215Z,14.47
2022-10-24T07:46:45.754Z,12.77
2022-10-24T07:49:14.380Z,13.68
2022-10-24T07:51:44.713Z,15.40
2022-10-24T07:54:13.262Z,12.45
2022-10-24T07:56:41.882Z,11.75
2022-10-24T07:59:29.965Z,12.37
2022-10-24T08:01:59.044Z,11.60
2022-10-24T08:04:29.226Z,9.70
2022-10-24T08:07:00.539Z,13.93
2022-10-24T08:09:29.115Z,11.77
2022-10-24T08:11:57.731Z,10.90
2022-10-24T08:14:26.508Z,12.20
2022-10-24T08:16:55.092Z,11.20
2022-10-24T08:21:59.148Z,12.10
2022-10-24T08:24:27.914Z,12.98
2022-10-24T08:26:57.052Z,14.73
2022-10-24T08:29:25.733Z,12.73
2022-10-24T08:31:55.725Z,12.13
2022-10-24T08:34:24.864Z,13.32
2022-10-24T08:36:53.557Z,14.32
2022-10-24T08:39:23.502Z,10.67
2022-10-24T08:41:59.292Z,12.63
2022-10-24T08:44:31.775Z,14.20
2022-10-24T08:47:04.695Z,11.90
2022-10-24T08:49:39.722Z,13.85
2022-10-24T08:52:17.984Z,10.90
2022-10-24T08:54:49.026Z,13.77
2022-10-24T08:57:24.062Z,12.38
2022-10-24T08:59:58.244Z,12.48
2022-10-24T09:02:29.063Z,13.27
2022-10-24T09:05:00.949Z,11.70
2022-10-24T09:07:30.152Z,11.68
2022-10-24T09:10:07.944Z,11.82
2022-10-24T09:12:37.379Z,11.20
2022-10-24T09:15:16.650Z,14.82
2022-10-24T09:17:46.623Z,12.25
2022-10-24T09:20:25.806Z,11.95
2022-10-24T09:22:56.340Z,12.90
2022-10-24T09:25:30.940Z,13.43
2022-10-24T09:28:02.080Z,13.25
2022-10-24T09:30:33.535Z,10.70
2022-10-24T09:33:13.971Z,11.10
2022-10-24T09:35:45.316Z,12.95
2022-10-24T09:38:33.760Z,10.15
2022-10-24T09:41:06.918Z,10.77
2022-10-24T09:43:41.062Z,9.07
2022-10-24T09:46:12.496Z,9.25
2022-10-24T09:48:49.784Z,9.00
2022-10-24T09:51:30.016Z,8.20
2022-10-24T09:54:06.655Z,8.13
2022-10-24T09:56:41.610Z,8.05
2022-10-24T09:59:35.939Z,9.35
2022-10-24T10:02:26.644Z,8.63
2022-10-24T10:05:14.835Z,7.63
2022-10-24T10:07:48.692Z,9.30
2022-10-24T10:10:38.954Z,8.10
2022-10-24T10:13:23.032Z,9.13
2022-10-24T10:15:54.577Z,10.35
2022-10-24T10:18:26.338Z,11.57
2022-10-24T10:21:09.008Z,10.05
2022-10-24T10:23:41.041Z,11.20
2022-10-24T10:26:19.494Z,10.30
2022-10-24T10:28:58.232Z,22.38
2022-10-24T10:31:34.990Z,9.07
2022-10-24T10:34:21.644Z,10.40
2022-10-24T10:36:59.940Z,8.48
2022-10-24T10:39:48.987Z,81.82
2022-10-24T10:42:22.086Z,219.07
2022-10-24T10:45:06.794Z,58.22
2022-10-24T10:47:47.335Z,45.85
2022-10-24T10:50:30.010Z,56.25
2022-10-24T10:53:09.577Z,377.48
2022-10-24T10:58:25.148Z,926.45
2022-10-24T11:01:02.160Z,988.28
2022-10-24T11:03:44.216Z,870.92
2022-10-24T11:06:31.227Z,549.33
2022-10-24T11:09:19.997Z,444.65
2022-10-24T11:11:54.777Z,455.55
2022-10-24T11:14:31.156Z,65.80
2022-10-24T11:17:12.304Z,218.68
2022-10-24T11:20:01.068Z,471.63
2022-10-24T11:22:35.636Z,238.90
2022-10-24T11:25:10.218Z,165.20
2022-10-24T11:27:44.064Z,259.75
2022-10-24T11:30:16.882Z,557.47
2022-10-24T11:32:51.459Z,1999.90
2022-10-24T11:35:25.668Z,1999.90
2022-10-24T11:38:00.980Z,1206.32
2022-10-24T11:40:31.734Z,776.25
2022-10-24T11:43:12.030Z,224.15
2022-10-24T11:45:48.832Z,756.58
2022-10-24T11:48:25.449Z,698.63
2022-10-24T11:50:57.263Z,569.28
2022-10-24T11:53:45.979Z,834.05
2022-10-24T11:56:23.490Z,599.15
2022-10-24T11:58:58.783Z,1596.05
2022-10-24T12:01:54.527Z,1215.97
2022-10-24T12:04:43.186Z,1234.57
2022-10-24T12:07:51.671Z,755.37
2022-10-24T12:10:35.827Z,679.10
2022-10-24T12:13:34.946Z,426.02
2022-10-24T12:16:10.843Z,878.35
2022-10-24T12:18:42.939Z,1016.70
2022-10-24T12:21:20.066Z,573.72
2022-10-24T12:23:56.494Z,624.60
2022-10-24T12:26:29.152Z,1183.95
2022-10-24T12:28:59.420Z,1281.68
2022-10-24T12:31:30.504Z,1820.07
2022-10-24T12:34:48.757Z,1738.60
2022-10-24T12:37:36.716Z,1365.53
2022-10-24T12:40:42.479Z,1778.13
2022-10-24T12:43:18.140Z,1514.25
2022-10-24T12:45:46.806Z,706.92
2022-10-24T12:48:33.086Z,872.53
2022-10-24T12:51:21.049Z,1322.20
2022-10-24T12:54:05.837Z,1635.43
2022-10-24T12:56:35.657Z,1600.22
2022-10-24T12:59:18.228Z,1349.88
2022-10-24T13:01:48.166Z,1511.57
2022-10-24T13:04:46.897Z,1061.70
2022-10-24T13:07:48.455Z,1029.00
2022-10-24T13:10:43.946Z,806.88
2022-10-24T13:13:35.054Z,846.80
2022-10-24T13:16:15.801Z,716.30
2022-10-24T13:18:54.738Z,478.60
2022-10-24T13:21:29.286Z,451.05
2022-10-24T13:24:13.603Z,555.15
2022-10-24T13:26:45.720Z,514.20
2022-10-24T13:29:16.693Z,642.08
2022-10-24T13:31:51.745Z,589.20
2022-10-24T13:34:43.032Z,851.53
2022-10-24T13:37:18.649Z,703.25
2022-10-24T13:39:50.548Z,799.45
2022-10-24T13:42:28.659Z,877.53
2022-10-24T13:45:01.544Z,657.58
2022-10-24T13:47:36.323Z,549.92
2022-10-24T13:50:13.124Z,448.02
2022-10-24T13:52:49.456Z,325.75
2022-10-24T13:55:26.006Z,397.33
2022-10-24T13:58:02.502Z,383.98
2022-10-24T14:00:34.230Z,279.83
2022-10-24T14:03:06.016Z,202.93
2022-10-24T14:05:39.025Z,167.32
2022-10-24T14:08:09.757Z,144.93
2022-10-24T14:10:39.558Z,176.60
2022-10-24T14:13:16.040Z,305.77
2022-10-24T14:15:49.991Z,453.10
2022-10-24T14:18:18.830Z,540.70
2022-10-24T14:20:53.533Z,837.70
2022-10-24T14:23:28.306Z,1089.43
2022-10-24T14:26:00.499Z,1169.10
2022-10-24T14:28:32.882Z,980.03
2022-10-24T14:31:03.588Z,1255.95
2022-10-24T14:33:33.771Z,1136.47
2022-10-24T14:36:04.977Z,661.58
2022-10-24T14:38:35.466Z,637.22
2022-10-24T14:41:09.599Z,766.30
2022-10-24T14:43:42.885Z,775.88
2022-10-24T14:46:30.482Z,772.30
2022-10-24T14:49:20.327Z,951.50
2022-10-24T14:51:50.854Z,703.53
2022-10-24T14:54:22.157Z,717.85
2022-10-24T14:56:52.255Z,545.88
2022-10-24T14:59:26.605Z,602.80
2022-10-24T15:01:57.750Z,733.00
2022-10-24T15:04:31.915Z,676.28
2022-10-24T15:07:15.014Z,1002.83
2022-10-24T15:09:54.780Z,817.53
2022-10-24T15:12:32.208Z,698.08
2022-10-24T15:15:23.213Z,661.83
2022-10-24T15:17:53.050Z,681.25
2022-10-24T15:22:55.609Z,971.10
2022-10-24T15:25:28.876Z,949.97
2022-10-24T15:28:00.652Z,1161.10
2022-10-24T15:30:32.571Z,1185.72
2022-10-24T15:33:02.753Z,993.17
2022-10-24T15:35:35.209Z,696.53
2022-10-24T15:38:12.577Z,804.13
2022-10-24T15:40:43.935Z,664.78
2022-10-24T15:43:13.541Z,468.30
2022-10-24T15:48:12.228Z,415.60
2022-10-24T15:50:45.802Z,564.55
2022-10-24T15:53:18.870Z,465.45
2022-10-24T15:55:48.009Z,467.55
2022-10-24T15:58:18.334Z,634.47
2022-10-24T16:00:48.489Z,708.42
2022-10-24T16:03:22.679Z,676.22
2022-10-24T16:05:53.817Z,588.70
2022-10-24T16:08:23.597Z,524.90
2022-10-24T16:10:53.806Z,497.80
2022-10-24T16:13:23.571Z,401.48
2022-10-24T16:15:54.026Z,244.73
2022-10-24T16:18:22.634Z,330.83
2022-10-24T16:20:51.127Z,321.10
2022-10-24T16:23:19.739Z,255.95
2022-10-24T16:25:48.375Z,206.07
2022-10-24T16:28:22.785Z,129.53
2022-10-24T16:30:54.438Z,121.18
2022-10-24T16:33:23.142Z,100.95
2022-10-24T16:35:52.280Z,91.63
2022-10-24T16:38:20.925Z,98.68
2022-10-24T16:40:49.714Z,110.17
2022-10-24T16:43:20.075Z,65.40
2022-10-24T16:46:00.083Z,97.57
2022-10-24T16:48:29.021Z,94.90
2022-10-24T16:50:57.954Z,136.65
2022-10-24T16:53:26.708Z,92.90
2022-10-24T16:55:56.660Z,104.87
2022-10-24T16:58:25.402Z,593.25
2022-10-24T17:01:04.787Z,828.37
2022-10-24T17:06:02.544Z,794.73
2022-10-24T17:08:31.454Z,598.50
2022-10-24T17:11:00.965Z,765.25
2022-10-24T17:15:58.154Z,844.67
2022-10-24T17:18:28.282Z,715.45
2022-10-24T17:21:00.354Z,807.40
2022-10-24T17:23:29.488Z,693.83
2022-10-24T17:25:59.302Z,569.33
2022-10-24T17:28:33.082Z,501.65
2022-10-24T17:31:02.314Z,687.00
2022-10-24T17:33:36.202Z,592.83
2022-10-24T17:36:07.770Z,579.97
2022-10-24T17:38:43.495Z,794.60
2022-10-24T17:41:22.516Z,880.80
2022-10-24T17:43:51.582Z,815.65
2022-10-24T17:46:20.816Z,1016.25
2022-10-24T17:48:51.242Z,1046.18
2022-10-24T17:51:23.210Z,985.20
2022-10-24T17:53:51.969Z,907.70
2022-10-24T17:56:23.232Z,923.33
2022-10-24T17:58:54.335Z,1018.55
2022-10-24T18:01:23.098Z,1147.83
2022-10-24T18:03:53.257Z,549.00
2022-10-24T18:06:21.823Z,614.88
2022-10-24T18:08:54.502Z,505.33
2022-10-24T18:11:23.565Z,536.28
2022-10-24T18:13:52.263Z,1128.00
2022-10-24T18:16:22.059Z,1458.10
2022-10-24T18:18:52.761Z,1192.00
2022-10-24T18:21:24.840Z,1130.65
2022-10-24T18:23:55.990Z,856.28
2022-10-24T18:26:26.517Z,875.92
2022-10-24T18:28:58.192Z,912.20
2022-10-24T18:31:29.021Z,609.92
2022-10-24T18:34:06.066Z,582.88
2022-10-24T18:36:37.643Z,473.92
2022-10-24T18:39:07.138Z,275.45
2022-10-24T18:41:46.603Z,378.85
2022-10-24T18:44:27.786Z,370.33
2022-10-24T18:47:02.149Z,187.00
2022-10-24T18:49:34.729Z,247.20
2022-10-24T18:52:14.836Z,235.13
2022-10-24T18:55:02.335Z,246.65
2022-10-24T18:57:34.660Z,221.75
2022-10-24T19:00:03.765Z,166.80
2022-10-24T19:02:37.144Z,279.77
2022-10-24T19:05:16.639Z,191.75
2022-10-24T19:10:20.750Z,279.40
2022-10-24T19:12:49.725Z,295.77
2022-10-24T19:15:19.080Z,214.75
2022-10-24T19:17:48.897Z,184.05
2022-10-24T19:20:21.486Z,170.02
2022-10-24T19:22:50.415Z,202.05
2022-10-24T19:25:19.471Z,179.13
2022-10-24T19:27:49.458Z,153.18
2022-10-24T19:30:18.232Z,122.50
2022-10-24T19:32:48.070Z,132.53
2022-10-24T19:35:18.902Z,125.30
2022-10-24T19:37:47.839Z,49.90
2022-10-24T19:40:16.876Z,142.48
2022-10-24T19:42:45.507Z,107.75
2022-10-24T19:45:14.478Z,81.17
2022-10-24T19:47:43.169Z,74.65
2022-10-24T19:50:12.791Z,114.00
2022-10-24T19:55:11.111Z,106.60
2022-10-24T19:57:39.948Z,122.27
2022-10-24T20:00:09.959Z,126.55
2022-10-24T20:02:42.028Z,131.80
2022-10-24T20:05:11.004Z,143.35
2022-10-24T20:07:39.711Z,86.65
2022-10-24T20:10:10.744Z,72.93
2022-10-24T20:12:39.598Z,66.05
2022-10-24T20:15:09.950Z,57.38
2022-10-24T20:17:38.637Z,40.35
2022-10-24T20:20:09.587Z,52.70
2022-10-24T20:22:38.198Z,52.33
2022-10-24T20:25:07.926Z,46.78
2022-10-24T20:27:40.811Z,55.22
2022-10-24T20:30:10.991Z,46.13
2022-10-24T20:32:39.623Z,72.38
2022-10-24T20:35:09.164Z,84.03
2022-10-24T20:37:38.105Z,65.05
2022-10-24T20:40:07.842Z,863.20
2022-10-24T20:42:37.820Z,780.78
2022-10-24T20:45:07.533Z,558.00
2022-10-24T20:47:36.830Z,592.63
2022-10-24T20:50:06.149Z,608.53
2022-10-24T20:52:34.938Z,467.02
2022-10-24T20:55:07.725Z,367.10
2022-10-24T20:57:45.456Z,407.13
2022-10-24T21:00:15.830Z,579.05
2022-10-24T21:02:47.538Z,851.45
2022-10-24T21:05:16.829Z,590.92
2022-10-24T21:07:50.146Z,765.85
2022-10-24T21:10:19.924Z,938.20
2022-10-24T21:12:50.531Z,918.65
2022-10-24T21:15:19.387Z,701.90
2022-10-24T21:17:48.156Z,587.65
2022-10-24T21:20:16.949Z,561.97
2022-10-24T21:22:45.534Z,666.03
2022-10-24T21:25:14.156Z,384.23
2022-10-24T21:27:42.796Z,298.77
2022-10-24T21:30:14.936Z,335.88
2022-10-24T21:32:43.851Z,407.23
2022-10-24T21:35:12.401Z,355.08
2022-10-24T21:37:40.962Z,354.03
2022-10-24T21:40:10.305Z,212.75
2022-10-24T21:42:38.914Z,203.10
2022-10-24T21:45:08.196Z,147.10
2022-10-24T21:50:37.308Z,127.68
2022-10-24T21:53:05.986Z,60.93
2022-10-24T21:55:34.522Z,31.03
2022-10-24T21:58:03.222Z,18.13
2022-10-24T22:00:35.656Z,20.75
2022-10-24T22:03:08.220Z,15.70
2022-10-24T22:05:36.848Z,17.65
2022-10-24T22:08:05.599Z,15.57
2022-10-24T22:10:34.182Z,15.23
2022-10-24T22:13:02.845Z,16.42
2022-10-24T22:15:31.474Z,16.53
2022-10-24T22:18:00.149Z,14.95
2022-10-24T22:20:30.115Z,15.17
2022-10-24T22:22:58.816Z,14.27
2022-10-24T22:25:27.447Z,15.98
2022-10-24T22:27:56.091Z,15.50
2022-10-24T22:30:24.813Z,14.95
2022-10-24T22:32:53.778Z,14.83
2022-10-24T22:35:23.183Z,13.75
2022-10-24T22:37:53.777Z,15.68
2022-10-24T22:40:26.943Z,16.80
2022-10-24T22:42:56.201Z,15.60
2022-10-24T22:45:29.819Z,18.48
2022-10-24T22:48:17.653Z,14.25
2022-10-24T22:50:53.939Z,12.85
2022-10-24T22:53:26.364Z,13.85
2022-10-24T22:56:13.161Z,11.25
2022-10-24T22:58:43.653Z,14.45
2022-10-24T23:01:21.718Z,13.48
2022-10-24T23:04:03.496Z,12.40
2022-10-24T23:06:41.361Z,15.23
2022-10-24T23:09:12.673Z,12.40
2022-10-24T23:11:41.654Z,14.07
2022-10-24T23:14:12.349Z,13.68
2022-10-24T23:16:46.274Z,15.38
2022-10-24T23:19:20.969Z,14.50
2022-10-24T23:21:54.444Z,12.93
2022-10-24T23:24:25.612Z,13.40
2022-10-24T23:27:14.986Z,13.63
2022-10-24T23:32:20.847Z,13.82
2022-10-24T23:35:44.756Z,14.25
2022-10-24T23:38:33.476Z,13.48
2022-10-24T23:41:04.315Z,13.95
2022-10-24T23:43:33.555Z,13.32
2022-10-24T23:46:06.728Z,15.00
2022-10-24T23:48:49.908Z,11.48
2022-10-24T23:51:24.945Z,11.85
2022-10-24T23:53:55.135Z,15.93
2022-10-24T23:56:27.161Z,11.80
2022-10-24T23:58:56.823Z,14.25
